Time;durP1;ratioP1;P1;durP2;ratioP2;P2;SDS_P1;SDS_P2;PMS_P1;PMS_P2;Temp;Humidity;BMP_temperature;BMP_pressure;BME280_temperature;BME280_humidity;BME280_pressure;Samples;Min_cycle;Max_cycle;Signal;HPM_P1;HPM_P2
2022/11/29 00:00:57;;;;;;;4.35;1.67;;;12.80;73.60;;;;;;2369662;53;20981;-76
2022/11/29 00:03:25;;;;;;;5.00;1.40;;;12.80;73.60;;;;;;2469056;52;20998;-76
2022/11/29 00:05:52;;;;;;;4.28;1.20;;;12.80;73.60;;;;;;2623375;52;20954;-72
2022/11/29 00:08:19;;;;;;;6.57;1.65;;;12.80;73.60;;;;;;2535088;52;21010;-73
2022/11/29 00:10:46;;;;;;;2.83;1.05;;;12.80;73.70;;;;;;2370751;53;20964;-72
2022/11/29 00:13:12;;;;;;;3.72;1.17;;;12.80;73.60;;;;;;2623679;52;20969;-74
2022/11/29 00:15:38;;;;;;;5.10;1.05;;;12.70;73.50;;;;;;2623106;52;20930;-74
2022/11/29 00:18:05;;;;;;;3.33;1.00;;;12.70;73.50;;;;;;2545660;52;21081;-75
2022/11/29 00:20:32;;;;;;;2.80;1.10;;;12.70;73.50;;;;;;2370615;53;20943;-72
2022/11/29 00:23:00;;;;;;;2.72;1.10;;;12.70;73.60;;;;;;2370656;53;20962;-76
2022/11/29 00:25:27;;;;;;;2.20;0.80;;;12.70;73.50;;;;;;2370673;53;22227;-75
2022/11/29 00:27:54;;;;;;;3.08;1.12;;;12.70;73.50;;;;;;2490919;52;21408;-73
2022/11/29 00:30:21;;;;;;;3.28;1.10;;;12.70;73.60;;;;;;2623808;52;20891;-72
2022/11/29 00:32:47;;;;;;;3.97;1.33;;;12.70;73.60;;;;;;2623447;52;21687;-74
2022/11/29 00:35:14;;;;;;;2.28;0.90;;;12.70;73.60;;;;;;2370762;53;20922;-75
2022/11/29 00:37:41;;;;;;;4.57;0.95;;;12.70;73.60;;;;;;2511425;52;21134;-74
2022/11/29 00:40:08;;;;;;;4.87;1.20;;;12.70;73.60;;;;;;2370786;53;20982;-72
2022/11/29 00:42:34;;;;;;;3.10;1.20;;;12.70;73.60;;;;;;2421675;52;21704;-73
2022/11/29 00:45:00;;;;;;;3.50;0.90;;;12.70;73.60;;;;;;2585108;52;20933;-73
2022/11/29 00:47:26;;;;;;;4.25;1.60;;;12.70;73.60;;;;;;2623776;52;20994;-75
2022/11/29 00:49:53;;;;;;;4.45;1.33;;;12.60;73.50;;;;;;2433322;52;22011;-75
2022/11/29 00:52:19;;;;;;;3.15;1.00;;;12.70;73.70;;;;;;2623794;52;21360;-76
2022/11/29 00:54:46;;;;;;;3.05;1.02;;;12.60;74.30;;;;;;2343668;53;1369209;-73
2022/11/29 00:57:15;;;;;;;4.45;1.02;;;12.60;73.90;;;;;;2460303;52;20955;-74
2022/11/29 00:59:41;;;;;;;3.58;1.20;;;12.60;73.60;;;;;;2370517;53;21284;-74
2022/11/29 01:02:08;;;;;;;3.47;1.17;;;12.60;73.60;;;;;;2443406;52;20942;-72
2022/11/29 01:04:35;;;;;;;2.72;1.00;;;12.60;73.60;;;;;;2370932;53;20927;-76
2022/11/29 01:07:01;;;;;;;3.00;1.20;;;12.60;73.50;;;;;;2620720;52;20975;-71
2022/11/29 01:09:28;;;;;;;3.00;1.23;;;12.60;73.40;;;;;;2370008;53;21017;-73
2022/11/29 01:11:54;;;;;;;3.60;0.88;;;12.60;73.30;;;;;;2370405;53;21057;-74
2022/11/29 01:14:21;;;;;;;4.72;1.25;;;12.60;73.30;;;;;;2370846;53;20938;-71
2022/11/29 01:16:47;;;;;;;3.00;0.95;;;12.60;73.30;;;;;;2370162;53;22087;-72
2022/11/29 01:19:14;;;;;;;2.33;1.00;;;12.60;73.40;;;;;;2370798;53;20934;-75
2022/11/29 01:21:40;;;;;;;3.00;1.20;;;12.60;73.40;;;;;;2623014;52;21759;-74
2022/11/29 01:24:07;;;;;;;2.90;1.00;;;12.60;73.40;;;;;;2370500;53;21460;-74
2022/11/29 01:26:34;;;;;;;3.92;1.02;;;12.50;73.30;;;;;;2370773;53;20902;-75
2022/11/29 01:29:00;;;;;;;2.00;0.93;;;12.50;73.30;;;;;;2592179;52;21029;-73
2022/11/29 01:31:35;;;;;;;3.20;1.17;;;12.50;73.30;;;;;;2362653;53;20914;-75
2022/11/29 01:34:02;;;;;;;2.45;1.10;;;12.50;73.20;;;;;;2369868;53;20909;-76
2022/11/29 01:36:28;;;;;;;2.90;1.00;;;12.50;73.30;;;;;;2370667;53;21758;-74
2022/11/29 01:38:54;;;;;;;2.97;1.00;;;12.50;73.40;;;;;;2370626;53;20926;-76
2022/11/29 01:41:23;;;;;;;3.87;1.12;;;12.50;73.40;;;;;;2366354;53;20977;-75
2022/11/29 01:45:27;;;;;;;2.60;1.00;;;12.50;73.40;;;;;;2370157;53;20901;-71
2022/11/29 01:47:55;;;;;;;2.78;0.80;;;12.50;73.20;;;;;;2622393;52;20902;-74
2022/11/29 01:50:21;;;;;;;1.75;0.77;;;12.40;73.20;;;;;;2370813;53;21679;-76
2022/11/29 01:52:50;;;;;;;2.72;0.75;;;12.40;73.20;;;;;;2370270;53;21708;-71
2022/11/29 01:55:17;;;;;;;2.30;0.90;;;12.40;73.20;;;;;;2370542;53;20923;-73
2022/11/29 01:57:43;;;;;;;3.05;0.95;;;12.40;73.20;;;;;;2370409;53;20917;-73
2022/11/29 02:00:12;;;;;;;3.97;1.00;;;12.40;73.30;;;;;;2623527;52;21002;-75
2022/11/29 02:02:56;;;;;;;2.80;0.85;;;12.40;73.20;;;;;;2370398;53;20997;-73
2022/11/29 02:05:22;;;;;;;4.22;0.95;;;12.30;73.00;;;;;;2369413;53;20983;-72
2022/11/29 02:07:50;;;;;;;3.47;1.15;;;12.30;73.20;;;;;;2356914;53;20930;-74
2022/11/29 02:10:17;;;;;;;2.92;1.00;;;12.30;73.20;;;;;;2369028;53;20910;-75
2022/11/29 02:14:14;;;;;;;3.35;1.10;;;12.30;73.20;;;;;;2621978;52;20899;-73
2022/11/29 02:17:02;;;;;;;2.83;1.00;;;12.30;72.20;;;;;;2354013;53;20946;-74
2022/11/29 02:23:11;;;;;;;2.72;0.70;;;12.30;72.50;;;;;;2371169;53;20977;-73
2022/11/29 02:29:04;;;;;;;1.95;0.50;;;12.20;71.90;;;;;;2342691;53;21482;-73
2022/11/29 02:34:47;;;;;;;2.17;0.60;;;12.20;72.20;;;;;;2343547;53;21371;-75
2022/11/29 02:38:48;;;;;;;2.00;0.62;;;12.20;72.40;;;;;;2342601;53;20954;-71
2022/11/29 02:41:30;;;;;;;2.97;0.68;;;12.10;71.80;;;;;;2410441;52;21040;-75
2022/11/29 02:45:39;;;;;;;2.80;0.85;;;12.00;72.40;;;;;;2360017;53;20915;-72
2022/11/29 02:48:59;;;;;;;2.15;0.75;;;12.00;71.80;;;;;;2370666;53;20966;-73
2022/11/29 02:51:42;;;;;;;2.65;0.80;;;11.90;72.20;;;;;;2370287;53;20934;-73
2022/11/29 02:54:57;;;;;;;1.95;0.65;;;11.90;72.30;;;;;;2371266;53;21009;-75
2022/11/29 02:57:49;;;;;;;1.85;0.60;;;11.80;72.50;;;;;;2623691;52;20934;-72
2022/11/29 03:00:18;;;;;;;2.35;0.77;;;11.80;72.40;;;;;;2370129;53;20919;-75
2022/11/29 03:05:40;;;;;;;2.97;0.80;;;11.80;72.70;;;;;;2623680;52;20946;-72
2022/11/29 03:09:58;;;;;;;2.60;0.70;;;11.80;72.00;;;;;;2370288;53;20910;-74
2022/11/29 03:12:38;;;;;;;1.90;0.70;;;11.70;72.30;;;;;;2592539;52;21033;-74
2022/11/29 03:15:30;;;;;;;4.60;0.80;;;11.70;72.70;;;;;;2370447;53;21022;-76
2022/11/29 03:18:22;;;;;;;3.58;0.75;;;11.70;72.60;;;;;;2370769;53;20993;-76
2022/11/29 03:21:18;;;;;;;2.13;0.80;;;11.70;72.90;;;;;;2370744;53;21501;-75
2022/11/29 03:23:47;;;;;;;4.47;1.10;;;11.70;72.60;;;;;;2370792;53;20922;-76
2022/11/29 03:26:18;;;;;;;4.03;0.75;;;11.70;73.00;;;;;;2623557;52;20974;-73
2022/11/29 03:29:05;;;;;;;2.33;0.73;;;11.60;73.00;;;;;;2370294;53;21002;-73
2022/11/29 03:32:15;;;;;;;2.67;0.80;;;11.60;72.80;;;;;;2382186;52;20942;-75
2022/11/29 03:37:54;;;;;;;5.93;0.90;;;11.60;72.90;;;;;;2370684;53;21078;-75
2022/11/29 03:40:51;;;;;;;2.90;0.77;;;11.60;72.20;;;;;;2370932;53;21317;-73
2022/11/29 03:43:29;;;;;;;3.45;0.85;;;11.60;72.80;;;;;;2370772;53;20910;-74
2022/11/29 03:46:02;;;;;;;2.50;0.70;;;11.60;72.90;;;;;;2623359;52;20937;-73
2022/11/29 03:49:47;;;;;;;4.12;0.90;;;11.60;73.10;;;;;;2371051;53;20931;-73
2022/11/29 03:52:39;;;;;;;2.83;1.00;;;11.60;72.40;;;;;;2374482;53;20970;-73
2022/11/29 03:56:40;;;;;;;3.80;0.95;;;11.60;73.10;;;;;;2370161;53;21035;-75
2022/11/29 03:59:46;;;;;;;1.25;0.55;;;11.60;72.50;;;;;;2370738;53;20929;-77
2022/11/29 04:05:29;;;;;;;3.58;0.60;;;11.60;72.90;;;;;;2359322;53;20958;-75
2022/11/29 04:09:50;;;;;;;2.20;0.68;;;11.60;73.00;;;;;;2370950;53;20934;-73
2022/11/29 04:14:03;;;;;;;2.20;0.55;;;11.60;72.50;;;;;;2373659;53;21010;-74
2022/11/29 04:19:51;;;;;;;2.22;0.70;;;11.60;72.60;;;;;;2350569;53;20974;-72
2022/11/29 04:30:38;;;;;;;1.40;0.52;;;11.60;73.10;;;;;;2418145;52;21395;-73
2022/11/29 04:34:14;;;;;;;0.57;0.35;;;11.60;72.60;;;;;;2342621;53;20990;-74
2022/11/29 04:40:51;;;;;;;2.42;0.60;;;11.60;72.80;;;;;;2345542;53;20968;-76
2022/11/29 04:44:54;;;;;;;1.65;0.60;;;11.60;72.70;;;;;;2433630;52;21441;-73
2022/11/29 04:47:45;;;;;;;2.20;0.85;;;11.60;72.80;;;;;;2372964;53;21053;-74
2022/11/29 04:51:57;;;;;;;3.15;0.82;;;11.60;73.20;;;;;;2370631;53;21009;-72
2022/11/29 04:54:42;;;;;;;2.47;0.60;;;11.60;72.90;;;;;;2371248;53;20958;-74
2022/11/29 04:57:32;;;;;;;4.25;0.70;;;11.60;73.40;;;;;;2623266;52;20886;-72
2022/11/29 05:00:12;;;;;;;2.87;1.37;;;11.60;73.60;;;;;;2622198;52;20933;-72
2022/11/29 05:02:50;;;;;;;3.33;1.00;;;11.60;73.60;;;;;;2357196;53;20985;-75
2022/11/29 05:07:01;;;;;;;3.00;0.80;;;11.60;73.70;;;;;;2373790;53;20973;-72
2022/11/29 05:09:49;;;;;;;5.07;0.82;;;11.60;74.10;;;;;;2370973;53;20997;-74
2022/11/29 05:14:02;;;;;;;3.42;0.70;;;11.60;73.60;;;;;;2374580;53;21971;-73
2022/11/29 05:21:37;;;;;;;1.87;0.65;;;11.60;73.50;;;;;;2370643;53;21013;-74
2022/11/29 05:24:30;;;;;;;2.05;0.80;;;11.70;72.90;;;;;;2370470;53;20914;-77
2022/11/29 05:30:09;;;;;;;2.90;1.00;;;11.70;73.30;;;;;;2370670;53;20922;-74
2022/11/29 05:34:16;;;;;;;3.03;0.90;;;11.70;72.90;;;;;;2371018;53;21371;-75
2022/11/29 05:37:04;;;;;;;3.50;1.10;;;11.70;72.70;;;;;;2422661;52;20962;-71
2022/11/29 05:40:07;;;;;;;3.53;1.30;;;11.70;73.30;;;;;;2370880;53;21001;-73
2022/11/29 05:43:13;;;;;;;4.12;1.55;;;11.60;72.80;;;;;;2370851;53;21002;-74
2022/11/29 05:47:15;;;;;;;3.28;1.77;;;11.60;72.80;;;;;;2370979;53;20950;-72
2022/11/29 05:50:16;;;;;;;2.65;1.42;;;11.60;72.60;;;;;;2370660;53;20990;-75
2022/11/29 05:53:10;;;;;;;5.57;1.73;;;11.60;73.20;;;;;;2371081;53;20938;-74
2022/11/29 05:57:12;;;;;;;3.03;1.25;;;11.60;73.40;;;;;;2371093;53;21001;-72
2022/11/29 05:59:40;;;;;;;2.58;1.35;;;11.60;72.90;;;;;;2366011;53;20913;-72
2022/11/29 06:02:31;;;;;;;3.62;1.35;;;11.60;73.80;;;;;;2370286;53;21045;-75
2022/11/29 06:07:08;;;;;;;3.83;1.50;;;11.60;73.70;;;;;;2370470;53;21010;-75
2022/11/29 06:09:55;;;;;;;4.10;1.17;;;11.60;72.90;;;;;;2369168;53;20977;-74
2022/11/29 06:12:24;;;;;;;3.92;1.40;;;11.70;73.70;;;;;;2596196;52;21804;-72
2022/11/29 06:18:07;;;;;;;2.80;1.33;;;11.60;73.70;;;;;;2370235;53;20966;-73
2022/11/29 06:23:51;;;;;;;2.50;1.17;;;11.70;73.40;;;;;;2557368;52;21014;-71
2022/11/29 06:28:09;;;;;;;4.00;1.40;;;11.70;72.90;;;;;;2473857;52;21759;-74
2022/11/29 06:31:15;;;;;;;3.87;1.67;;;11.70;72.80;;;;;;2612289;52;20940;-73
2022/11/29 06:34:19;;;;;;;4.35;1.83;;;11.70;73.30;;;;;;2394750;52;21684;-73
2022/11/29 06:37:18;;;;;;;4.37;2.33;;;11.70;73.40;;;;;;2414248;52;20902;-76
2022/11/29 06:39:45;;;;;;;5.07;2.08;;;11.70;73.40;;;;;;2622699;52;20919;-72
2022/11/29 06:42:12;;;;;;;4.62;2.22;;;11.70;73.90;;;;;;2623007;52;20922;-73
2022/11/29 06:44:38;;;;;;;4.62;1.95;;;11.70;74.10;;;;;;2623398;52;21459;-75
2022/11/29 06:47:20;;;;;;;5.55;1.98;;;11.70;74.10;;;;;;2622382;52;21050;-73
2022/11/29 06:49:52;;;;;;;3.00;1.63;;;11.70;74.10;;;;;;2566287;52;20922;-72
2022/11/29 06:53:47;;;;;;;3.28;2.00;;;11.70;74.10;;;;;;2624138;52;20942;-74
2022/11/29 06:58:11;;;;;;;4.95;3.12;;;11.70;73.30;;;;;;2370902;53;21022;-75
2022/11/29 07:01:04;;;;;;;4.95;2.15;;;11.70;73.80;;;;;;2617932;52;22858;-75
2022/11/29 07:05:49;;;;;;;3.33;1.77;;;11.80;73.60;;;;;;2374164;53;22043;-74
2022/11/29 07:08:29;;;;;;;4.47;1.73;;;11.80;73.20;;;;;;2622687;52;21339;-74
2022/11/29 07:10:58;;;;;;;4.57;1.70;;;11.80;74.00;;;;;;2370458;53;21359;-72
2022/11/29 07:13:26;;;;;;;2.85;1.42;;;11.80;74.10;;;;;;2454431;52;20918;-75
2022/11/29 07:19:36;;;;;;;3.97;1.35;;;11.80;74.10;;;;;;2603072;52;21017;-75
2022/11/29 07:29:28;;;;;;;2.58;1.05;;;11.80;73.20;;;;;;2463345;52;20956;-72
2022/11/29 07:33:35;;;;;;;2.35;1.00;;;11.80;73.40;;;;;;2444083;52;20915;-75
2022/11/29 07:36:13;;;;;;;2.25;1.00;;;11.90;73.20;;;;;;2622713;52;21498;-76
2022/11/29 07:44:48;;;;;;;2.78;1.48;;;11.90;73.80;;;;;;2590576;53;21008;-74
2022/11/29 07:47:15;;;;;;;4.85;1.52;;;11.90;73.30;;;;;;2623386;52;21375;-73
2022/11/29 07:49:42;;;;;;;3.58;1.85;;;11.90;74.10;;;;;;2622895;52;21360;-73
2022/11/29 07:52:11;;;;;;;3.17;1.40;;;11.90;74.20;;;;;;2620843;52;20902;-72
2022/11/29 07:54:38;;;;;;;5.87;1.12;;;11.90;74.30;;;;;;2371923;53;20975;-73
2022/11/29 07:57:07;;;;;;;3.03;1.20;;;11.90;74.40;;;;;;2623156;52;20887;-73
2022/11/29 07:59:33;;;;;;;4.25;1.35;;;11.90;74.50;;;;;;2370815;53;21910;-75
2022/11/29 08:02:01;;;;;;;6.32;1.40;;;11.90;74.50;;;;;;2370271;53;21006;-72
2022/11/29 08:04:27;;;;;;;5.20;1.58;;;12.00;74.70;;;;;;2374190;53;20910;-72
2022/11/29 08:06:56;;;;;;;2.42;1.20;;;12.00;74.70;;;;;;2363245;53;20982;-74
2022/11/29 08:09:22;;;;;;;4.05;0.85;;;12.00;74.70;;;;;;2371257;53;21022;-73
2022/11/29 08:11:49;;;;;;;3.12;1.25;;;12.00;74.70;;;;;;2465240;52;20915;-72
2022/11/29 08:14:15;;;;;;;3.90;1.52;;;12.00;74.60;;;;;;2517359;52;20922;-72
2022/11/29 08:16:42;;;;;;;4.82;1.60;;;12.00;74.60;;;;;;2576672;52;20946;-75
2022/11/29 08:19:08;;;;;;;3.35;1.50;;;12.00;74.70;;;;;;2549471;52;21016;-76
2022/11/29 08:21:35;;;;;;;4.35;1.50;;;12.10;74.70;;;;;;2331551;53;72148;-75
2022/11/29 08:24:02;;;;;;;3.37;1.75;;;12.10;74.70;;;;;;2311156;54;21004;-76
2022/11/29 08:26:28;;;;;;;4.37;2.03;;;12.10;74.70;;;;;;2443565;53;20942;-75
2022/11/29 08:28:57;;;;;;;2.95;1.33;;;12.10;74.70;;;;;;2313692;54;20942;-75
2022/11/29 08:31:23;;;;;;;4.22;1.85;;;12.20;74.70;;;;;;2581206;53;20909;-73
2022/11/29 08:33:50;;;;;;;4.72;1.80;;;12.20;74.70;;;;;;2336643;55;20954;-76
2022/11/29 08:36:17;;;;;;;5.25;1.70;;;12.20;74.70;;;;;;2583657;53;20884;-76
2022/11/29 08:38:43;;;;;;;4.85;1.80;;;12.20;74.60;;;;;;2338602;55;20943;-75
2022/11/29 08:41:12;;;;;;;3.00;1.65;;;12.20;74.60;;;;;;2386955;53;21055;-74
2022/11/29 08:43:38;;;;;;;2.60;1.17;;;12.20;74.60;;;;;;2353031;53;21047;-76
2022/11/29 08:46:05;;;;;;;2.90;1.40;;;12.20;74.70;;;;;;2332971;54;20900;-74
2022/11/29 08:48:32;;;;;;;3.12;1.27;;;12.30;74.80;;;;;;2342545;55;20932;-75
2022/11/29 08:51:01;;;;;;;3.17;1.20;;;12.30;74.80;;;;;;2589184;53;20968;-73
2022/11/29 08:53:44;;;;;;;2.90;1.20;;;12.30;74.70;;;;;;2343414;55;20916;-73
2022/11/29 08:56:15;;;;;;;3.45;1.30;;;12.30;74.70;;;;;;2510393;53;21035;-75
2022/11/29 08:59:11;;;;;;;3.85;1.40;;;12.40;74.80;;;;;;2307151;54;21347;-74
2022/11/29 09:01:38;;;;;;;4.40;1.50;;;12.40;74.70;;;;;;2340167;54;21744;-73
2022/11/29 09:04:06;;;;;;;3.47;1.60;;;12.40;74.70;;;;;;2310536;54;20962;-73
2022/11/29 09:06:37;;;;;;;4.70;1.58;;;12.40;74.60;;;;;;2314955;54;22055;-74
2022/11/29 09:09:04;;;;;;;3.58;1.45;;;12.40;74.50;;;;;;2518924;53;21342;-76
2022/11/29 09:11:31;;;;;;;2.75;1.25;;;12.40;74.50;;;;;;2550382;53;21538;-74
2022/11/29 09:14:01;;;;;;;3.50;1.48;;;12.40;74.50;;;;;;2310872;54;21425;-75
2022/11/29 09:16:29;;;;;;;3.72;1.60;;;12.40;74.50;;;;;;2311120;54;20923;-73
2022/11/29 09:18:56;;;;;;;2.60;1.23;;;12.50;74.60;;;;;;2334804;54;21055;-75
2022/11/29 09:21:24;;;;;;;3.12;1.40;;;12.50;74.60;;;;;;2544413;53;20911;-72
2022/11/29 09:23:57;;;;;;;3.55;1.58;;;12.50;74.60;;;;;;2391955;53;21039;-73
2022/11/29 09:26:28;;;;;;;5.10;1.70;;;12.50;74.60;;;;;;2550633;53;20928;-73
2022/11/29 09:28:54;;;;;;;3.78;1.83;;;12.50;74.60;;;;;;2310632;54;20999;-73
2022/11/29 09:31:21;;;;;;;4.85;2.35;;;12.50;74.50;;;;;;2471012;53;20920;-73
2022/11/29 09:33:50;;;;;;;3.78;1.62;;;12.50;74.30;;;;;;2325565;54;21082;-73
2022/11/29 09:36:18;;;;;;;4.55;1.95;;;12.50;74.00;;;;;;2298661;55;20949;-74
2022/11/29 09:38:44;;;;;;;5.47;1.52;;;12.50;74.10;;;;;;2285094;55;20977;-73
2022/11/29 09:41:39;;;;;;;4.97;1.77;;;12.50;74.00;;;;;;2266137;55;20964;-73
2022/11/29 09:45:29;;;;;;;4.68;1.67;;;12.50;73.60;;;;;;2311009;54;20955;-73
2022/11/29 09:51:05;;;;;;;3.85;1.40;;;12.50;73.20;;;;;;2331527;54;20958;-73
2022/11/29 09:53:55;;;;;;;2.83;1.27;;;12.50;74.00;;;;;;2310869;54;22051;-73
2022/11/29 09:56:36;;;;;;;3.30;1.62;;;12.50;73.60;;;;;;2310606;54;21038;-73
2022/11/29 09:59:04;;;;;;;3.50;1.27;;;12.50;73.80;;;;;;2549586;53;20947;-73
2022/11/29 10:01:33;;;;;;;4.35;1.40;;;12.60;74.30;;;;;;2311077;54;20950;-73
2022/11/29 10:04:01;;;;;;;5.87;1.80;;;12.50;74.30;;;;;;2310640;54;20950;-74
2022/11/29 10:06:39;;;;;;;3.37;1.60;;;12.50;74.30;;;;;;2311321;54;20983;-74
2022/11/29 10:15:21;;;;;;;3.35;1.75;;;12.50;74.30;;;;;;2310520;54;21836;-74
2022/11/29 10:18:55;;;;;;;3.33;1.70;;;12.60;73.50;;;;;;2347951;54;21263;-74
2022/11/29 10:21:24;;;;;;;3.65;1.65;;;12.60;73.40;;;;;;2311043;54;20970;-74
2022/11/29 10:23:53;;;;;;;4.28;2.00;;;12.60;74.00;;;;;;2550267;53;20995;-74
2022/11/29 10:26:21;;;;;;;6.03;2.33;;;12.60;74.80;;;;;;2310510;54;21035;-74
2022/11/29 10:28:48;;;;;;;3.42;1.83;;;12.50;74.00;;;;;;2348076;54;21026;-74
2022/11/29 10:31:38;;;;;;;4.32;1.98;;;12.50;74.80;;;;;;2309653;54;21932;-74
2022/11/29 10:34:12;;;;;;;5.97;2.08;;;12.50;73.90;;;;;;2426532;53;20963;-73
2022/11/29 10:36:44;;;;;;;6.65;3.15;;;12.50;74.00;;;;;;2309319;54;21444;-74
2022/11/29 10:39:41;;;;;;;7.78;3.10;;;12.60;74.20;;;;;;2311105;54;21011;-73
2022/11/29 10:45:12;;;;;;;7.28;2.40;;;12.50;74.10;;;;;;2371197;53;20903;-73
2022/11/29 10:47:38;;;;;;;4.72;2.70;;;12.60;74.30;;;;;;2310634;54;20979;-73
2022/11/29 10:50:06;;;;;;;4.82;2.58;;;12.60;74.30;;;;;;2549846;54;20982;-73
2022/11/29 10:52:36;;;;;;;6.25;2.37;;;12.60;74.30;;;;;;2449923;53;21694;-74
2022/11/29 10:55:02;;;;;;;5.25;2.17;;;12.60;74.40;;;;;;2452845;53;21001;-73
2022/11/29 10:57:29;;;;;;;3.70;2.05;;;12.60;74.30;;;;;;2558158;53;20939;-73
2022/11/29 11:00:06;;;;;;;5.22;2.03;;;12.60;74.30;;;;;;2335477;53;20932;-74
2022/11/29 11:02:32;;;;;;;3.58;2.00;;;12.60;74.10;;;;;;2319720;54;21596;-73
2022/11/29 11:04:59;;;;;;;5.40;2.80;;;12.60;74.00;;;;;;2478817;53;20956;-73
2022/11/29 11:07:34;;;;;;;4.75;2.70;;;12.60;74.00;;;;;;2309723;54;20915;-73
2022/11/29 11:10:04;;;;;;;5.30;2.40;;;12.60;73.90;;;;;;2394785;53;20997;-73
2022/11/29 11:12:32;;;;;;;6.28;2.50;;;12.60;74.00;;;;;;2549850;53;21027;-74
2022/11/29 11:15:53;;;;;;;5.30;2.87;;;12.60;74.00;;;;;;2314572;54;20943;-73
2022/11/29 11:18:21;;;;;;;5.97;2.72;;;12.60;73.60;;;;;;2474879;53;21641;-73
2022/11/29 11:20:57;;;;;;;6.32;2.80;;;12.60;73.80;;;;;;2549913;53;21026;-73
2022/11/29 11:23:35;;;;;;;4.10;2.20;;;12.60;73.60;;;;;;2310934;54;21074;-73
2022/11/29 11:26:05;;;;;;;4.70;2.70;;;12.60;73.60;;;;;;2500343;53;20974;-73
2022/11/29 11:28:52;;;;;;;5.87;3.08;;;12.60;73.90;;;;;;2364271;53;20958;-73
2022/11/29 11:31:36;;;;;;;4.95;3.03;;;12.60;73.50;;;;;;2381327;54;20999;-73
2022/11/29 11:34:27;;;;;;;4.47;2.85;;;12.60;73.50;;;;;;2407882;54;21039;-73
2022/11/29 11:37:12;;;;;;;4.75;2.45;;;12.60;73.30;;;;;;2549761;53;20959;-73
2022/11/29 11:39:39;;;;;;;4.40;2.53;;;12.50;73.60;;;;;;2287745;54;20934;-73
2022/11/29 11:45:00;;;;;;;4.68;2.95;;;12.50;73.60;;;;;;2282587;55;21041;-73
2022/11/29 11:47:27;;;;;;;5.22;2.85;;;12.50;73.60;;;;;;2278813;55;21089;-73
2022/11/29 11:50:08;;;;;;;5.53;3.15;;;12.50;73.50;;;;;;2404070;54;20947;-73
2022/11/29 11:53:01;;;;;;;6.47;2.95;;;12.40;73.40;;;;;;2555712;53;20923;-73
2022/11/29 11:55:35;;;;;;;5.05;2.62;;;12.50;73.20;;;;;;2556464;53;21894;-74
2022/11/29 11:58:17;;;;;;;5.82;3.33;;;12.40;73.40;;;;;;2302966;54;20963;-73
2022/11/29 12:01:36;;;;;;;4.70;3.17;;;12.40;73.40;;;;;;2293442;55;21872;-73
2022/11/29 12:05:55;;;;;;;4.32;2.65;;;12.40;73.50;;;;;;2537361;54;20951;-74
2022/11/29 12:08:22;;;;;;;4.97;2.78;;;12.40;73.00;;;;;;2305657;55;21003;-74
2022/11/29 12:10:50;;;;;;;5.32;3.28;;;12.40;73.80;;;;;;2504859;54;21677;-73
2022/11/29 12:13:19;;;;;;;4.95;3.05;;;12.40;73.90;;;;;;2281659;55;20916;-74
2022/11/29 12:15:46;;;;;;;5.20;2.75;;;12.40;73.90;;;;;;2498361;53;21633;-74
2022/11/29 12:18:15;;;;;;;7.12;3.37;;;12.30;73.80;;;;;;2295246;55;20950;-73
2022/11/29 12:20:56;;;;;;;6.57;3.87;;;12.40;74.00;;;;;;2316173;55;20949;-74
2022/11/29 12:23:29;;;;;;;6.65;3.80;;;12.40;73.80;;;;;;2315849;55;20950;-74
2022/11/29 12:26:04;;;;;;;5.72;3.55;;;12.40;73.90;;;;;;2392316;54;20942;-73
2022/11/29 12:28:32;;;;;;;7.15;3.60;;;12.40;74.00;;;;;;2315545;55;20965;-73
2022/11/29 12:32:46;;;;;;;6.93;3.90;;;12.40;74.20;;;;;;2315206;55;20983;-73
2022/11/29 12:35:28;;;;;;;5.37;3.60;;;12.40;73.60;;;;;;2397452;54;20999;-73
2022/11/29 12:40:49;;;;;;;7.32;4.10;;;12.40;74.20;;;;;;2315369;55;20927;-73
2022/11/29 12:44:47;;;;;;;7.65;3.45;;;12.40;73.70;;;;;;2349289;54;21003;-73
2022/11/29 12:50:00;;;;;;;6.62;3.78;;;12.50;74.30;;;;;;2377156;54;21582;-74
2022/11/29 12:52:39;;;;;;;5.80;3.67;;;12.50;73.80;;;;;;2314467;54;20931;-74
2022/11/29 13:00:20;;;;;;;9.32;4.72;;;12.50;74.40;;;;;;2314592;54;21429;-74
2022/11/29 13:06:06;;;;;;;7.70;3.45;;;12.50;73.80;;;;;;2319723;55;21479;-73
2022/11/29 13:12:48;;;;;;;6.57;4.03;;;12.60;74.00;;;;;;2297418;55;21466;-73
2022/11/29 13:15:16;;;;;;;6.75;3.40;;;12.60;73.50;;;;;;2292854;55;20951;-74
2022/11/29 13:18:21;;;;;;;6.60;3.62;;;12.60;74.00;;;;;;2315050;55;21007;-73
2022/11/29 13:23:43;;;;;;;6.78;4.12;;;12.50;73.80;;;;;;2413527;53;21754;-73
2022/11/29 13:26:32;;;;;;;5.55;3.12;;;12.50;73.50;;;;;;2488806;53;21111;-74
2022/11/29 13:29:00;;;;;;;7.15;3.85;;;12.60;74.40;;;;;;2342158;54;21011;-73
2022/11/29 13:31:26;;;;;;;6.37;3.95;;;12.60;74.50;;;;;;2322728;54;20986;-73
2022/11/29 13:35:50;;;;;;;9.13;4.45;;;12.50;74.30;;;;;;2336757;54;20937;-73
2022/11/29 13:38:22;;;;;;;5.45;2.90;;;12.60;73.70;;;;;;2314038;55;20931;-74
2022/11/29 13:49:48;;;;;;;5.90;3.40;;;12.60;74.40;;;;;;2320339;55;21726;-73
2022/11/29 13:52:47;;;;;;;5.28;2.72;;;12.60;73.60;;;;;;2294150;55;20995;-74
2022/11/29 13:55:27;;;;;;;6.65;3.25;;;12.70;73.80;;;;;;2330036;54;20935;-74
2022/11/29 13:58:06;;;;;;;6.75;3.75;;;12.60;74.00;;;;;;2316441;55;20971;-73
2022/11/29 14:00:49;;;;;;;6.78;3.55;;;12.60;74.00;;;;;;2315715;55;21047;-73
2022/11/29 14:03:28;;;;;;;5.65;3.35;;;12.60;74.30;;;;;;2315933;55;21018;-73
2022/11/29 14:06:34;;;;;;;6.40;3.55;;;12.70;74.20;;;;;;2335381;54;20967;-73
2022/11/29 14:09:22;;;;;;;6.40;3.87;;;12.70;74.00;;;;;;2315747;55;21054;-73
2022/11/29 14:12:22;;;;;;;6.03;3.40;;;12.70;74.10;;;;;;2315724;55;20927;-73
2022/11/29 14:14:57;;;;;;;5.95;3.37;;;12.70;74.10;;;;;;2339368;54;20939;-73
2022/11/29 14:17:42;;;;;;;6.12;3.58;;;12.70;74.50;;;;;;2304186;54;20974;-74
2022/11/29 14:21:57;;;;;;;6.03;3.83;;;12.70;74.40;;;;;;2316171;55;21821;-73
2022/11/29 14:25:24;;;;;;;5.93;3.65;;;12.70;73.80;;;;;;2315826;55;21688;-74
2022/11/29 14:28:38;;;;;;;6.43;3.55;;;12.80;73.80;;;;;;2293092;55;20924;-73
2022/11/29 14:31:05;;;;;;;7.15;4.30;;;12.80;73.90;;;;;;2315658;55;20979;-74
2022/11/29 14:34:17;;;;;;;7.53;4.80;;;12.80;74.20;;;;;;2315754;55;20939;-74
2022/11/29 14:36:58;;;;;;;10.45;4.20;;;12.80;73.20;;;;;;2555860;54;20956;-73
2022/11/29 14:39:46;;;;;;;7.30;4.22;;;12.80;73.50;;;;;;2315036;55;20963;-74
2022/11/29 14:42:18;;;;;;;7.78;4.72;;;12.70;73.40;;;;;;2315530;55;21642;-74
2022/11/29 14:45:03;;;;;;;7.05;4.32;;;12.70;73.40;;;;;;2316057;54;21835;-74
2022/11/29 14:47:37;;;;;;;7.87;4.22;;;12.70;73.20;;;;;;2315025;54;20947;-73
2022/11/29 14:50:07;;;;;;;7.72;4.05;;;12.70;73.30;;;;;;2315369;54;22616;-73
2022/11/29 14:52:49;;;;;;;7.55;4.70;;;12.60;73.40;;;;;;2315582;55;20939;-73
2022/11/29 14:55:29;;;;;;;6.53;4.10;;;12.60;73.30;;;;;;2319265;55;21038;-73
2022/11/29 14:58:15;;;;;;;7.80;3.90;;;12.60;73.50;;;;;;2315213;55;20967;-73
2022/11/29 15:01:02;;;;;;;8.73;3.83;;;12.60;73.60;;;;;;2315489;55;21432;-74
2022/11/29 15:03:41;;;;;;;6.22;3.78;;;12.60;73.30;;;;;;2315169;55;21023;-74
2022/11/29 15:06:25;;;;;;;6.25;3.65;;;12.60;73.60;;;;;;2311484;55;21022;-73
2022/11/29 15:09:13;;;;;;;6.65;3.58;;;12.60;73.70;;;;;;2324856;55;20994;-73
2022/11/29 15:12:02;;;;;;;5.97;3.28;;;12.60;73.80;;;;;;2314574;54;21086;-73
2022/11/29 15:18:13;;;;;;;6.85;3.37;;;12.60;74.00;;;;;;2315024;55;20979;-73
2022/11/29 15:21:14;;;;;;;3.65;2.15;;;12.60;73.60;;;;;;2294926;54;20886;-73
2022/11/29 15:23:41;;;;;;;5.50;3.00;;;12.60;73.70;;;;;;2314771;55;21059;-73
2022/11/29 15:26:16;;;;;;;4.43;2.70;;;12.60;74.00;;;;;;2376032;54;20951;-73
2022/11/29 15:28:45;;;;;;;5.47;3.10;;;12.60;73.90;;;;;;2314861;55;21012;-74
2022/11/29 15:31:27;;;;;;;6.47;2.92;;;12.60;74.20;;;;;;2322305;54;21473;-73
2022/11/29 15:33:55;;;;;;;7.70;2.78;;;12.70;73.90;;;;;;2314028;55;20999;-73
2022/11/29 15:36:25;;;;;;;5.25;2.80;;;12.60;74.10;;;;;;2305903;55;20935;-74
2022/11/29 15:38:53;;;;;;;6.43;3.40;;;12.60;74.10;;;;;;2314974;55;21428;-73
2022/11/29 15:41:26;;;;;;;6.62;3.15;;;12.60;74.10;;;;;;2388854;54;21835;-73
2022/11/29 15:43:59;;;;;;;7.90;3.37;;;12.60;73.90;;;;;;2314037;55;20939;-73
2022/11/29 15:46:26;;;;;;;8.20;3.90;;;12.60;74.00;;;;;;2301366;55;21064;-73
2022/11/29 15:48:54;;;;;;;6.55;3.87;;;12.60;73.90;;;;;;2550560;53;21074;-73
2022/11/29 15:51:30;;;;;;;5.55;3.37;;;12.60;73.90;;;;;;2317091;55;21019;-74
2022/11/29 15:54:09;;;;;;;5.10;2.92;;;12.60;73.60;;;;;;2313100;55;20999;-73
2022/11/29 15:58:12;;;;;;;6.18;3.42;;;12.60;73.60;;;;;;2322549;54;21024;-74
2022/11/29 16:00:38;;;;;;;5.32;2.75;;;12.60;72.90;;;;;;2381412;53;20963;-74
2022/11/29 16:03:05;;;;;;;5.32;3.15;;;12.60;73.80;;;;;;2315605;55;20979;-73
2022/11/29 16:05:33;;;;;;;5.60;3.20;;;12.60;73.80;;;;;;2315175;55;20947;-73
2022/11/29 16:08:20;;;;;;;5.90;3.25;;;12.60;73.80;;;;;;2314747;55;20942;-74
2022/11/29 16:10:51;;;;;;;4.97;2.87;;;12.60;73.40;;;;;;2310421;55;20961;-73